Time;durP1;ratioP1;P1;durP2;ratioP2;P2;SDS_P1;SDS_P2;PMS_P1;PMS_P2;Temp;Humidity;BMP_temperature;BMP_pressure;BME280_temperature;BME280_humidity;BME280_pressure;Samples;Min_cycle;Max_cycle;Signal;HPM_P1;HPM_P2
2023/09/20 00:01:53;;;;;;;;;;;17.10;1.00;;;;;;12337817;28;20020;-84
2023/09/20 00:07:55;;;;;;;;;;;17.10;1.00;;;;;;12351849;28;20377;-84
2023/09/20 00:14:00;;;;;;;;;;;17.10;1.00;;;;;;12337478;28;20544;-84
2023/09/20 00:20:11;;;;;;;;;;;17.10;1.00;;;;;;12315564;28;20626;-82
2023/09/20 00:26:13;;;;;;;;;;;17.10;1.00;;;;;;12343120;28;19977;-83
2023/09/20 00:32:15;;;;;;;;;;;17.10;16.00;;;;;;12366449;28;19936;-85
2023/09/20 00:38:18;;;;;;;;;;;17.10;6.50;;;;;;12363739;28;19933;-85
2023/09/20 00:44:20;;;;;;;;;;;17.20;10.40;;;;;;12365122;28;20453;-84
2023/09/20 00:50:23;;;;;;;;;;;17.10;12.60;;;;;;12359065;28;19933;-83
2023/09/20 00:56:25;;;;;;;;;;;17.10;10.70;;;;;;12370626;28;20420;-84
2023/09/20 01:02:28;;;;;;;;;;;17.10;16.70;;;;;;12362737;28;20012;-83
2023/09/20 01:08:32;;;;;;;;;;;17.10;25.50;;;;;;12371874;28;19972;-83
2023/09/20 01:14:35;;;;;;;;;;;17.10;17.90;;;;;;12370681;28;19934;-87
2023/09/20 01:20:39;;;;;;;;;;;17.10;14.40;;;;;;12380067;28;19934;-84
2023/09/20 01:26:41;;;;;;;;;;;17.10;22.50;;;;;;12367501;28;19930;-85
2023/09/20 01:32:44;;;;;;;;;;;17.10;25.30;;;;;;12339416;28;19929;-86
2023/09/20 01:38:45;;;;;;;;;;;17.20;25.40;;;;;;12343360;28;19933;-85
2023/09/20 01:44:49;;;;;;;;;;;17.20;20.40;;;;;;12360380;28;20016;-85
2023/09/20 01:50:51;;;;;;;;;;;17.10;35.80;;;;;;12331583;28;19937;-85
2023/09/20 01:56:52;;;;;;;;;;;17.10;55.00;;;;;;12342349;28;19973;-85
2023/09/20 02:02:55;;;;;;;;;;;17.20;30.70;;;;;;12349715;28;19934;-85
2023/09/20 02:08:57;;;;;;;;;;;17.10;33.10;;;;;;12354482;28;20441;-85
2023/09/20 02:15:00;;;;;;;;;;;17.00;50.60;;;;;;12341518;28;19930;-85
2023/09/20 02:21:02;;;;;;;;;;;16.90;49.30;;;;;;12338392;28;20486;-85
2023/09/20 02:27:08;;;;;;;;;;;16.90;57.40;;;;;;12352586;28;19936;-85
2023/09/20 02:33:14;;;;;;;;;;;16.90;51.30;;;;;;12355482;28;20282;-85
2023/09/20 02:39:18;;;;;;;;;;;16.90;54.80;;;;;;12361264;28;19976;-85
2023/09/20 02:45:23;;;;;;;;;;;16.90;52.40;;;;;;12363071;28;19929;-84
2023/09/20 02:51:25;;;;;;;;;;;17.00;54.30;;;;;;12376827;28;20501;-85
2023/09/20 02:57:26;;;;;;;;;;;17.00;48.60;;;;;;12367151;28;20068;-85
2023/09/20 03:03:28;;;;;;;;;;;17.00;53.40;;;;;;12351752;28;19936;-86
2023/09/20 03:09:35;;;;;;;;;;;16.90;58.80;;;;;;12367729;28;19929;-85
2023/09/20 03:15:43;;;;;;;;;;;16.90;73.50;;;;;;12363346;28;20424;-85
2023/09/20 03:21:47;;;;;;;;;;;16.90;65.40;;;;;;12355165;28;19933;-84
2023/09/20 03:27:49;;;;;;;;;;;16.90;65.70;;;;;;12363948;28;19983;-86
2023/09/20 03:33:51;;;;;;;;;;;16.80;68.00;;;;;;12348575;28;19930;-85
2023/09/20 03:39:52;;;;;;;;;;;16.90;76.60;;;;;;12339354;28;21608;-86
2023/09/20 03:45:54;;;;;;;;;;;16.80;82.40;;;;;;12354920;28;19934;-86
2023/09/20 03:51:58;;;;;;;;;;;16.80;96.10;;;;;;12352993;28;19929;-83
2023/09/20 03:58:00;;;;;;;;;;;16.70;99.90;;;;;;12354021;28;19940;-84
2023/09/20 04:04:03;;;;;;;;;;;16.70;97.10;;;;;;12365076;28;19922;-84
2023/09/20 04:10:07;;;;;;;;;;;16.60;99.90;;;;;;12421430;28;19929;-84
2023/09/20 04:16:09;;;;;;;;;;;16.60;99.90;;;;;;12409563;28;19922;-84
2023/09/20 04:22:11;;;;;;;;;;;16.50;99.90;;;;;;12398912;28;19945;-84
2023/09/20 04:28:12;;;;;;;;;;;16.50;99.90;;;;;;12414914;28;19949;-83
2023/09/20 04:34:15;;;;;;;;;;;16.50;99.90;;;;;;12383731;28;20658;-83
2023/09/20 04:40:16;;;;;;;;;;;16.50;99.90;;;;;;12383527;28;19930;-84
2023/09/20 04:46:18;;;;;;;;;;;16.40;99.90;;;;;;12358025;28;20072;-83
2023/09/20 04:52:22;;;;;;;;;;;16.40;99.90;;;;;;12342298;28;20405;-83
2023/09/20 04:58:23;;;;;;;;;;;16.40;99.90;;;;;;12367646;28;19937;-84
2023/09/20 05:04:25;;;;;;;;;;;16.40;99.90;;;;;;12359284;28;20044;-83
2023/09/20 05:10:27;;;;;;;;;;;16.50;99.90;;;;;;12351168;28;19934;-83
2023/09/20 05:16:29;;;;;;;;;;;16.50;99.90;;;;;;12349996;28;19984;-83
2023/09/20 05:22:31;;;;;;;;;;;16.50;99.90;;;;;;12370349;28;19930;-82
2023/09/20 05:28:33;;;;;;;;;;;16.50;99.90;;;;;;12354091;28;20045;-84
2023/09/20 05:34:34;;;;;;;;;;;16.50;99.90;;;;;;12349771;28;19936;-84
2023/09/20 05:40:37;;;;;;;;;;;16.50;99.90;;;;;;12343551;28;19934;-85
2023/09/20 05:46:39;;;;;;;;;;;16.40;99.90;;;;;;12352816;28;20041;-84
2023/09/20 05:52:45;;;;;;;;;;;16.40;99.90;;;;;;12356031;28;20485;-84
2023/09/20 05:58:47;;;;;;;;;;;16.50;99.90;;;;;;12340887;28;19934;-83
2023/09/20 06:04:50;;;;;;;;;;;16.40;99.90;;;;;;12346502;28;19930;-83
2023/09/20 06:10:53;;;;;;;;;;;16.50;99.90;;;;;;12337634;28;19977;-84
2023/09/20 06:16:55;;;;;;;;;;;16.60;99.90;;;;;;12345149;28;19933;-83
2023/09/20 06:22:57;;;;;;;;;;;16.70;99.90;;;;;;12349078;28;20024;-85
2023/09/20 06:29:01;;;;;;;;;;;16.90;99.90;;;;;;12343736;28;20433;-85
2023/09/20 06:35:07;;;;;;;;;;;17.00;99.90;;;;;;12373423;28;19929;-85
2023/09/20 06:41:09;;;;;;;;;;;17.20;99.90;;;;;;12377164;28;19930;-86
2023/09/20 06:47:11;;;;;;;;;;;17.30;98.90;;;;;;12375575;28;19937;-85
2023/09/20 06:53:14;;;;;;;;;;;17.30;98.80;;;;;;12368325;28;20363;-85
2023/09/20 06:59:16;;;;;;;;;;;17.40;93.20;;;;;;12357804;28;20727;-85
2023/09/20 07:05:19;;;;;;;;;;;17.50;85.40;;;;;;12343300;28;19934;-85
2023/09/20 07:11:21;;;;;;;;;;;17.60;92.60;;;;;;12360634;28;19965;-86
2023/09/20 07:17:22;;;;;;;;;;;17.60;87.30;;;;;;12373881;28;19932;-86
2023/09/20 07:23:24;;;;;;;;;;;17.70;91.50;;;;;;12349901;28;19937;-87
2023/09/20 07:29:26;;;;;;;;;;;17.60;83.60;;;;;;12353592;28;19981;-85
2023/09/20 07:35:38;;;;;;;;;;;17.60;93.80;;;;;;12335867;28;19933;-85
2023/09/20 07:41:45;;;;;;;;;;;17.70;98.80;;;;;;12347402;28;20016;-86
2023/09/20 07:47:46;;;;;;;;;;;17.80;69.50;;;;;;12345559;28;20552;-85
2023/09/20 07:53:58;;;;;;;;;;;17.80;91.60;;;;;;12345548;28;19972;-85
2023/09/20 08:00:00;;;;;;;;;;;18.00;72.30;;;;;;12338002;28;19930;-85
2023/09/20 08:06:08;;;;;;;;;;;18.20;61.60;;;;;;12335530;28;20415;-84
2023/09/20 08:12:11;;;;;;;;;;;18.30;47.00;;;;;;12343658;28;19929;-83
2023/09/20 09:02:38;;;;;;;;;;;18.90;29.60;;;;;;12381184;28;19926;-85
2023/09/20 09:08:40;;;;;;;;;;;18.80;48.90;;;;;;12374467;28;19929;-86
2023/09/20 09:14:43;;;;;;;;;;;19.00;33.30;;;;;;12381788;28;19988;-83
2023/09/20 09:20:45;;;;;;;;;;;19.30;10.20;;;;;;12362170;28;20476;-85
2023/09/20 09:26:48;;;;;;;;;;;19.60;1.00;;;;;;12370074;28;20370;-85
2023/09/20 09:32:51;;;;;;;;;;;19.90;1.00;;;;;;12343340;28;19926;-84
2023/09/20 09:39:07;;;;;;;;;;;20.00;1.00;;;;;;12333711;28;20109;-84
2023/09/20 09:45:32;;;;;;;;;;;20.00;1.00;;;;;;12322249;28;20020;-85
2023/09/20 09:51:35;;;;;;;;;;;20.20;1.00;;;;;;12267440;28;21127;-85
2023/09/20 09:57:37;;;;;;;;;;;20.50;1.00;;;;;;12318878;28;19929;-84
2023/09/20 10:03:40;;;;;;;;;;;21.00;1.00;;;;;;12328682;28;20366;-86
2023/09/20 10:09:48;;;;;;;;;;;21.50;1.00;;;;;;12305136;28;20444;-87
2023/09/20 10:15:51;;;;;;;;;;;21.70;1.00;;;;;;12321463;28;20499;-86
2023/09/20 10:22:08;;;;;;;;;;;21.80;1.00;;;;;;12323879;28;20488;-87
2023/09/20 10:28:14;;;;;;;;;;;22.00;1.00;;;;;;12339073;28;20393;-86
2023/09/20 10:34:19;;;;;;;;;;;22.10;1.00;;;;;;12373355;28;20024;-86
2023/09/20 10:40:21;;;;;;;;;;;22.40;1.00;;;;;;12361109;28;19933;-84
2023/09/20 10:46:23;;;;;;;;;;;22.40;1.00;;;;;;12362939;28;22237;-84
2023/09/20 10:52:37;;;;;;;;;;;22.50;99.90;;;;;;12371353;28;20713;-85
2023/09/20 10:58:41;;;;;;;;;;;22.50;1.00;;;;;;12352319;28;19937;-84
2023/09/20 11:04:46;;;;;;;;;;;22.30;1.00;;;;;;12358223;28;19937;-84
2023/09/20 11:10:49;;;;;;;;;;;22.00;1.00;;;;;;12344219;28;20068;-86
2023/09/20 11:16:50;;;;;;;;;;;21.70;1.00;;;;;;12364445;28;20405;-84
2023/09/20 11:22:52;;;;;;;;;;;21.50;1.00;;;;;;12346622;28;19945;-85
2023/09/20 11:28:54;;;;;;;;;;;21.40;1.00;;;;;;12346080;28;19941;-88
2023/09/20 11:34:56;;;;;;;;;;;21.40;1.00;;;;;;12327926;28;20013;-85
2023/09/20 11:40:59;;;;;;;;;;;21.60;1.00;;;;;;12350623;28;19930;-87
2023/09/20 11:47:03;;;;;;;;;;;21.70;1.00;;;;;;12343612;28;19976;-86
2023/09/20 11:53:05;;;;;;;;;;;21.70;1.00;;;;;;12347857;28;19972;-88
2023/09/20 11:59:09;;;;;;;;;;;21.80;1.00;;;;;;12344680;28;20547;-86
2023/09/20 12:05:11;;;;;;;;;;;21.90;1.00;;;;;;12341636;28;19937;-87
2023/09/20 12:11:14;;;;;;;;;;;21.90;1.00;;;;;;12348528;28;20309;-86
2023/09/20 12:17:16;;;;;;;;;;;21.70;1.00;;;;;;12343732;28;19929;-85
2023/09/20 12:23:18;;;;;;;;;;;21.40;1.00;;;;;;12342139;28;19937;-85
2023/09/20 12:29:20;;;;;;;;;;;21.50;1.00;;;;;;12351439;28;19933;-87
2023/09/20 12:35:22;;;;;;;;;;;21.70;1.00;;;;;;12369586;28;20477;-87
2023/09/20 12:41:26;;;;;;;;;;;21.50;1.00;;;;;;12356111;28;19941;-86
2023/09/20 12:47:29;;;;;;;;;;;21.50;1.00;;;;;;12359574;28;20024;-86
2023/09/20 12:53:34;;;;;;;;;;;22.00;1.00;;;;;;12335930;28;20386;-86
2023/09/20 12:59:36;;;;;;;;;;;22.20;1.00;;;;;;12365296;28;19936;-86
2023/09/20 13:05:38;;;;;;;;;;;22.30;1.00;;;;;;12350579;28;20493;-85
2023/09/20 13:11:46;;;;;;;;;;;22.30;1.00;;;;;;12345637;28;19926;-87
2023/09/20 13:17:48;;;;;;;;;;;22.50;1.00;;;;;;12359248;28;20485;-86
2023/09/20 13:23:50;;;;;;;;;;;22.40;1.00;;;;;;12354750;28;19930;-87
2023/09/20 13:29:52;;;;;;;;;;;22.20;1.00;;;;;;12355289;28;19930;-86
2023/09/20 13:35:55;;;;;;;;;;;22.10;1.00;;;;;;12359868;28;20022;-86
2023/09/20 13:41:58;;;;;;;;;;;21.90;1.00;;;;;;12356564;28;19929;-86
2023/09/20 13:48:00;;;;;;;;;;;21.80;1.00;;;;;;12356393;28;19933;-86
2023/09/20 13:54:02;;;;;;;;;;;21.80;1.00;;;;;;12349604;28;19930;-86
2023/09/20 14:00:14;;;;;;;;;;;21.80;1.00;;;;;;12376783;28;19930;-86
2023/09/20 14:06:19;;;;;;;;;;;22.00;1.00;;;;;;12367209;28;20394;-86
2023/09/20 14:12:21;;;;;;;;;;;22.10;1.00;;;;;;12349922;28;20305;-86
2023/09/20 14:18:23;;;;;;;;;;;21.70;1.00;;;;;;12377242;28;20033;-86
2023/09/20 14:24:26;;;;;;;;;;;21.70;1.00;;;;;;12358094;28;19957;-86
2023/09/20 14:30:28;;;;;;;;;;;21.80;99.90;;;;;;12353324;28;19937;-86
2023/09/20 14:36:30;;;;;;;;;;;22.00;1.00;;;;;;12347930;28;20009;-86
2023/09/20 14:42:31;;;;;;;;;;;21.90;1.00;;;;;;12360378;28;20024;-87
2023/09/20 14:48:33;;;;;;;;;;;21.80;1.00;;;;;;12359838;28;19980;-88
2023/09/20 14:54:37;;;;;;;;;;;21.70;1.00;;;;;;12340577;28;20429;-86
2023/09/20 15:00:38;;;;;;;;;;;21.60;1.00;;;;;;12346996;28;19934;-86
2023/09/20 15:06:40;;;;;;;;;;;21.40;1.00;;;;;;12363455;28;20068;-86
2023/09/20 15:12:46;;;;;;;;;;;21.30;1.00;;;;;;12362189;28;19980;-87
2023/09/20 15:18:50;;;;;;;;;;;21.20;1.00;;;;;;12370000;28;19930;-87
2023/09/20 15:24:52;;;;;;;;;;;21.20;1.00;;;;;;12358764;28;19976;-87
2023/09/20 15:30:55;;;;;;;;;;;21.10;1.00;;;;;;12356697;28;20021;-86
2023/09/20 15:36:57;;;;;;;;;;;21.00;1.00;;;;;;12358674;28;20211;-87
2023/09/20 15:42:59;;;;;;;;;;;21.00;1.00;;;;;;12385164;28;20417;-85
2023/09/20 15:49:01;;;;;;;;;;;20.90;1.00;;;;;;12341650;28;19929;-85
2023/09/20 15:55:02;;;;;;;;;;;20.90;1.00;;;;;;12355936;28;20401;-85
2023/09/20 16:01:05;;;;;;;;;;;21.20;1.00;;;;;;12376304;28;19934;-85
2023/09/20 16:07:07;;;;;;;;;;;21.50;1.00;;;;;;12367671;28;19964;-85
2023/09/20 16:13:13;;;;;;;;;;;21.60;1.00;;;;;;12360692;28;19984;-86
2023/09/20 16:19:15;;;;;;;;;;;21.50;1.00;;;;;;12356146;28;19926;-86
2023/09/20 16:25:17;;;;;;;;;;;21.60;1.00;;;;;;12347150;28;20425;-85
2023/09/20 16:31:19;;;;;;;;;;;21.70;1.00;;;;;;12348401;28;20066;-85
2023/09/20 16:37:21;;;;;;;;;;;21.50;1.00;;;;;;12345548;28;19934;-86
2023/09/20 16:43:25;;;;;;;;;;;21.40;1.00;;;;;;12357328;28;19944;-85
2023/09/20 16:49:28;;;;;;;;;;;21.10;1.00;;;;;;12359256;28;19929;-86
2023/09/20 16:55:29;;;;;;;;;;;20.80;1.00;;;;;;12347005;28;20839;-87
2023/09/20 17:01:31;;;;;;;;;;;20.70;1.00;;;;;;12364200;28;19930;-87
2023/09/20 17:07:35;;;;;;;;;;;20.50;1.00;;;;;;12348974;28;19967;-86
2023/09/20 17:13:37;;;;;;;;;;;20.20;1.00;;;;;;12344885;28;20407;-86
2023/09/20 17:19:39;;;;;;;;;;;20.10;1.00;;;;;;12372213;28;19968;-86
2023/09/20 17:25:41;;;;;;;;;;;20.00;1.00;;;;;;12355851;28;20619;-87
2023/09/20 17:31:43;;;;;;;;;;;19.90;1.00;;;;;;12359605;28;19934;-87
2023/09/20 17:37:44;;;;;;;;;;;19.80;1.00;;;;;;12381335;28;19996;-87
2023/09/20 17:43:48;;;;;;;;;;;19.70;10.00;;;;;;12375490;28;20015;-84
2023/09/20 17:49:51;;;;;;;;;;;19.60;22.40;;;;;;12353506;28;20341;-86
2023/09/20 17:55:53;;;;;;;;;;;19.60;46.10;;;;;;12357489;28;19930;-84
2023/09/20 18:01:57;;;;;;;;;;;19.50;29.30;;;;;;12363592;28;20382;-87
2023/09/20 18:08:01;;;;;;;;;;;19.50;49.80;;;;;;12356188;28;19933;-86
2023/09/20 18:14:03;;;;;;;;;;;19.50;44.20;;;;;;12363728;28;19930;-85
2023/09/20 18:20:09;;;;;;;;;;;19.50;43.70;;;;;;12361721;28;19933;-86
2023/09/20 18:26:11;;;;;;;;;;;19.40;55.40;;;;;;12363847;28;19934;-86
2023/09/20 18:32:13;;;;;;;;;;;19.40;53.40;;;;;;12365836;28;19936;-86
2023/09/20 18:38:15;;;;;;;;;;;19.40;70.70;;;;;;12375480;28;20386;-86
2023/09/20 18:44:18;;;;;;;;;;;19.30;61.60;;;;;;12370885;28;19973;-86
2023/09/20 18:50:23;;;;;;;;;;;19.30;90.10;;;;;;12350738;28;20457;-87
2023/09/20 18:56:25;;;;;;;;;;;19.20;76.30;;;;;;12378091;28;19984;-87
2023/09/20 19:02:26;;;;;;;;;;;19.10;76.50;;;;;;12361979;28;19965;-84
2023/09/20 19:08:28;;;;;;;;;;;19.10;74.20;;;;;;12373649;28;20310;-86
2023/09/20 19:14:31;;;;;;;;;;;19.00;88.60;;;;;;12357317;28;19941;-86
2023/09/20 19:20:37;;;;;;;;;;;19.00;92.20;;;;;;12363833;28;20447;-86
2023/09/20 19:26:40;;;;;;;;;;;18.90;81.40;;;;;;12364152;28;19972;-85
2023/09/20 19:32:44;;;;;;;;;;;18.90;67.20;;;;;;12371981;28;19938;-86
2023/09/20 19:38:46;;;;;;;;;;;18.80;73.00;;;;;;12361271;28;19977;-87
2023/09/20 19:44:48;;;;;;;;;;;18.90;79.80;;;;;;12369546;28;19980;-86
2023/09/20 19:50:51;;;;;;;;;;;18.90;50.10;;;;;;12358953;28;20344;-86
2023/09/20 19:56:52;;;;;;;;;;;19.00;76.40;;;;;;12362198;28;19972;-86
2023/09/20 20:03:00;;;;;;;;;;;19.00;50.80;;;;;;12374610;28;20131;-86
2023/09/20 20:09:06;;;;;;;;;;;18.90;40.30;;;;;;12363579;28;19933;-86
2023/09/20 20:15:08;;;;;;;;;;;18.90;80.20;;;;;;12355526;28;19968;-86
2023/09/20 20:21:12;;;;;;;;;;;18.80;83.10;;;;;;12371726;28;19957;-86
2023/09/20 20:27:14;;;;;;;;;;;18.70;87.40;;;;;;12357715;28;20064;-86
2023/09/20 20:33:16;;;;;;;;;;;18.70;55.90;;;;;;12373754;28;20028;-86
2023/09/20 20:39:18;;;;;;;;;;;18.60;49.20;;;;;;12363370;28;19934;-84
2023/09/20 20:45:20;;;;;;;;;;;18.60;48.30;;;;;;12361042;28;19926;-86
2023/09/20 20:51:23;;;;;;;;;;;18.50;65.30;;;;;;12353261;28;20397;-85
2023/09/20 20:57:24;;;;;;;;;;;18.50;36.30;;;;;;12374513;28;20400;-86
2023/09/20 21:03:28;;;;;;;;;;;18.60;37.30;;;;;;12380418;28;20764;-85
2023/09/20 21:09:31;;;;;;;;;;;18.60;49.10;;;;;;12352423;28;19929;-86
2023/09/20 21:15:33;;;;;;;;;;;18.60;52.70;;;;;;12370220;28;19933;-86
2023/09/20 21:21:35;;;;;;;;;;;18.50;33.50;;;;;;12368284;28;20495;-86
2023/09/20 21:27:37;;;;;;;;;;;18.50;44.60;;;;;;12366850;28;19936;-86
2023/09/20 21:33:40;;;;;;;;;;;18.40;33.20;;;;;;12385770;28;20611;-86
2023/09/20 21:39:42;;;;;;;;;;;18.40;45.50;;;;;;12383438;28;19986;-85
2023/09/20 21:45:44;;;;;;;;;;;18.40;44.70;;;;;;12413470;28;19938;-86
2023/09/20 21:51:46;;;;;;;;;;;18.30;42.10;;;;;;12432362;28;19922;-85
2023/09/20 21:57:47;;;;;;;;;;;18.30;36.20;;;;;;12429718;28;19913;-86
2023/09/20 22:03:49;;;;;;;;;;;18.40;25.60;;;;;;12435367;28;19922;-85
2023/09/20 22:09:54;;;;;;;;;;;18.40;62.00;;;;;;12416706;28;20332;-86
2023/09/20 22:15:56;;;;;;;;;;;18.40;34.80;;;;;;12428408;28;19944;-86
2023/09/20 22:22:00;;;;;;;;;;;18.30;42.10;;;;;;12422089;28;19922;-86
2023/09/20 22:28:03;;;;;;;;;;;18.20;38.30;;;;;;12445605;28;20032;-85
2023/09/20 22:34:11;;;;;;;;;;;18.10;39.60;;;;;;12423335;28;19922;-86
2023/09/20 22:40:20;;;;;;;;;;;18.10;35.80;;;;;;12413282;28;19930;-85
2023/09/20 22:46:25;;;;;;;;;;;18.10;49.00;;;;;;12411075;28;19941;-86
2023/09/20 22:52:27;;;;;;;;;;;18.20;23.50;;;;;;12360629;28;20020;-83
2023/09/20 22:58:30;;;;;;;;;;;18.10;44.90;;;;;;12369751;28;20435;-84
2023/09/20 23:04:32;;;;;;;;;;;18.30;34.50;;;;;;12377755;28;19930;-85
2023/09/20 23:10:35;;;;;;;;;;;18.30;5.00;;;;;;12364337;28;19934;-84
2023/09/20 23:16:42;;;;;;;;;;;18.30;13.50;;;;;;12365677;28;19929;-84
2023/09/20 23:22:46;;;;;;;;;;;18.20;20.60;;;;;;12367147;28;19936;-84
2023/09/20 23:28:48;;;;;;;;;;;18.20;13.40;;;;;;12357170;28;19929;-84
2023/09/20 23:34:50;;;;;;;;;;;18.10;26.10;;;;;;12373449;28;20028;-85
2023/09/20 23:40:52;;;;;;;;;;;18.00;23.70;;;;;;12374812;28;20427;-84
2023/09/20 23:46:55;;;;;;;;;;;18.10;18.30;;;;;;12359874;28;19941;-85
2023/09/20 23:52:57;;;;;;;;;;;17.90;23.50;;;;;;12364505;28;20013;-84
2023/09/20 23:59:00;;;;;;;;;;;17.90;26.70;;;;;;12353011;28;19941;-83
